Skip Navigation Links Skip Navigation Links

Current Weather

Reedsburg Muni, Reedsburg, Wis.

For information only: do not use for flight planning or navigation.
Latest weather
Observation time Friday, December 3, 2021 3:55 AM CST
Local time Friday, December 3, 2021 4:23 AM CST
Flight conditions Instrument Meteorological Conditions
Winds
Wind speed calm
Visibility 7 mi.
Sky condition
Ceiling 700 ft. broken clouds
Cloud layer broken clouds 700 ft.
Cloud layer broken clouds 2,600 ft.
Cloud layer overcast 3,800 ft.
Temperature 32°F
Dewpoint 32°F
Altimeter 30.04 in.Hg
Precipitation
Precipitation last hour 0.04 in.
Derived measurements
Relative humidity 100%
Wind chill 32°F
Density altitude -958 ft.
Remarks
Fully automated report.
Automated weather observing station with precipitation discriminator.
Present weather sensor not operating.
METAR KC35 030955Z AUTO 00000KT 7SM BKN007 BKN026 OVC038 00/00 A3004 RMK AO2 P0004 T00010001 PWINO

Settings

Location code

InnerDrive.Weather 4.0.6770.0 Release CLR 4.0.30319.42000
Copyright ©2018 Inner Drive Technology. All rights reserved. Portions Copyright ©1986-2018 David Braverman.

Find weather

Site navigation


Skip Navigation Links

Place info

Page info

PayPal - The safer, easier way to pay online!

Return home.

Copyright ©2021 Inner Drive Technology. Purveyors of fine, hand-crafted computer software. Page printed 2021-12-03T10:23:43 UTC.